Latest Coastal Weather Observations for Coolangatta

IDQ60701

Issued at 11:01 pm EST Thursday 11 February 2016 (issued every 10 minutes, with the page automatically refreshed every 10 minutes)

About coastal observations | Map of coastal stations | Coastal observations for QLD | Marine services | Other Formats
Station Details ID: 040717 Name: COOLANGATTA Lat: -28.17 Lon: 153.51 Height: 4.0 m
Data from the previous 72 hours. | See also: Recent months at Coolangatta
Date/Time
EST
Temp

°C
Wind Pressure Rain
since 9am
mm
Weather Cloud Vis
km
Sea
Height
m
Swell
Dir
 
Speed
knots
Gust
knots
hPa Trend Height
m
Period
s
Dir
11/11:00pm 22.7 S 6 8 1013.6 - 0.0 - Partly cloudy 10 - - - -
11/10:30pm 24.0 SE 9 13 1013.8 - 0.0 - Partly cloudy 10 - - - -
11/10:00pm 24.3 SE 9 13 1013.8 - 0.0 - Partly cloudy 10 - - - -
11/09:30pm 23.2 SSE 5 10 1013.7 - 0.0 - Partly cloudy 10 - - - -
11/09:00pm 22.8 SSE 5 8 1013.8 - 0.0 - - 10 - - - -
11/08:30pm 23.0 S 5 7 1013.7 - 0.0 - - 10 - - - -
11/08:00pm 23.6 SSE 5 9 1013.5 - 0.0 - Partly cloudy 10 - - - -
11/07:30pm 23.9 SSE 6 9 1013.3 - 0.0 - Partly cloudy 10 - - - -
11/07:00pm 24.4 SSE 7 10 1013.1 - 0.0 - Partly cloudy 10 - - - -
11/06:30pm 24.4 SSE 9 14 1013.0 - 0.0 - Partly cloudy 10 - - - -
11/06:00pm 25.1 SSE 12 16 1012.6 - 0.0 - Partly cloudy 10 - - - -
11/05:30pm 25.6 SSE 12 16 1012.2 - 0.0 - Partly cloudy 10 - - - -
11/05:00pm 26.5 SE 14 21 1011.9 - 0.0 - Partly cloudy 10 - - - -
11/04:30pm 26.3 SSE 14 19 1011.8 - 0.0 - Partly cloudy 10 - - - -
11/04:00pm 27.4 SE 14 20 1011.8 - 0.0 - Partly cloudy 10 - - - -
11/03:30pm 27.1 SSE 14 21 1011.7 - 0.0 - Partly cloudy 10 - - - -
11/03:00pm 27.5 SE 16 21 1011.7 - 0.0 - Partly cloudy 10 - - - -
11/02:30pm 28.0 SE 14 18 1011.8 - 0.0 - Partly cloudy 10 - - - -
11/02:00pm 27.8 SE 15 21 1012.1 - 0.0 - Partly cloudy 10 - - - -
11/01:30pm 27.2 SE 14 19 1012.5 - 0.0 - Partly cloudy 10 - - - -
11/01:00pm 28.0 ESE 16 20 1012.7 - 0.0 - Partly cloudy 10 - - - -
11/12:30pm 27.7 ESE 16 20 1013.0 - 0.0 - Partly cloudy 10 - - - -
11/12:00pm 28.1 SSE 13 17 1013.1 - 0.0 - - 10 - - - -
11/11:30am 27.3 SE 13 19 1013.1 - 0.0 - Partly cloudy 10 - - - -
11/11:00am 27.3 SE 13 19 1013.3 - 0.0 - Partly cloudy 10 - - - -
11/10:30am 26.0 SSE 12 17 1013.4 - 0.0 - Partly cloudy 10 - - - -
11/10:00am 25.7 SE 12 16 1013.5 - 0.0 - Partly cloudy 10 - - - -
11/09:30am 25.3 SSE 12 17 1013.4 - 0.0 - Partly cloudy 10 - - - -
11/09:00am 26.2 SSE 9 14 1013.4 - 10.0 - Mostly clear 10 - - - -
11/08:30am 25.3 S 10 14 1013.3 - 10.0 - - 10 - - - -
11/08:00am 24.8 S 8 14 1013.3 - 10.0 - - 10 - - - -
11/07:30am 23.9 SSW 8 12 1013.2 - 10.0 - - 10 - - - -
11/07:00am 23.0 SSW 5 7 1013.1 - 10.0 - Partly cloudy 10 - - - -
11/06:30am 21.4 SSW 5 6 1012.8 - 10.0 - Partly cloudy 10 - - - -
11/06:00am 20.8 SSW 4 6 1012.5 - 10.0 - Partly cloudy 10 - - - -
11/05:30am 20.4 SSW 5 6 1012.2 - 10.0 - - 10 - - - -
11/05:00am 20.4 SSW 4 6 1012.0 - 10.0 - Partly cloudy 10 - - - -
11/04:30am 20.5 SSW 5 6 1011.8 - 10.0 - - 10 - - - -
11/04:00am 20.8 SSW 5 7 1011.6 - 10.0 - - 10 - - - -
11/03:30am 20.5 S 5 6 1011.6 - 10.0 - - 10 - - - -
11/03:00am 20.8 SSW 5 7 1011.8 - 10.0 Drizzle Partly cloudy 10 - - - -
11/02:30am 20.7 SSW 4 5 1012.0 - 10.0 - Partly cloudy 10 - - - -
11/02:00am 20.9 SSW 6 8 1012.2 - 10.0 - Partly cloudy 10 - - - -
11/01:30am 20.6 S 5 6 1012.4 - 10.0 - - 10 - - - -
11/01:00am 20.8 S 4 6 1012.7 - 10.0 - Partly cloudy 10 - - - -
11/12:30am 21.0 SSW 6 8 1012.9 - 10.0 - Partly cloudy 10 - - - -
11/12:00am 21.0 SSW 4 6 1013.1 - 10.0 - - 10 - - - -
 
Date/Time
EST
Temp

°C
Wind Pressure Rain
since 9am
mm
Weather Cloud Vis
km
Sea
Height
m
Swell
Dir
 
Speed
knots
Gust
knots
hPa Trend Height
m
Period
s
Dir
10/11:30pm 21.4 SW 6 8 1013.4 - 10.0 - Partly cloudy 10 - - - -
10/11:00pm 21.6 SSW 6 10 1013.8 - 10.0 - Partly cloudy 10 - - - -
10/10:30pm 21.7 SSW 7 10 1013.8 - 10.0 - Partly cloudy 10 - - - -
10/10:00pm 21.7 SSW 6 8 1013.9 - 10.0 - Cloudy 10 - - - -
10/09:30pm 22.0 S 8 11 1013.9 - 10.0 - Partly cloudy 10 - - - -
10/09:00pm 21.8 SSW 7 9 1013.9 - 10.0 - Cloudy 10 - - - -
10/08:30pm 21.6 SSW 6 8 1014.0 - 10.0 - Partly cloudy 10 - - - -
10/08:00pm 21.5 S 6 9 1013.9 - 10.0 - Partly cloudy 10 - - - -
10/07:30pm 21.4 SSW 7 9 1013.6 - 9.8 - Partly cloudy 10 - - - -
10/07:00pm 21.4 SSW 6 9 1013.6 - 9.8 - Partly cloudy 10 - - - -
10/06:30pm 21.3 SSW 7 10 1013.6 - 9.8 - Partly cloudy 10 - - - -
10/06:25pm 21.2 SSW 8 13 1013.7 - 9.8 - Partly cloudy 10 - - - -
10/06:00pm 21.1 S 7 11 1013.5 - 9.4 Showers Cloudy 4 - - - -
10/05:30pm 21.2 S 10 15 1013.1 - 8.4 - Partly cloudy 5 - - - -
10/05:28pm 21.4 S 10 15 1013.0 - 8.4 - Partly cloudy 6 - - - -
10/05:19pm 21.4 S 9 14 1012.9 - 8.2 - Partly cloudy 10 - - - -
10/05:01pm 21.5 SSE 12 17 1012.6 - 8.2 - Partly cloudy 6 - - - -
10/05:00pm 21.6 SSE 11 17 1012.6 - 8.2 - Partly cloudy 7 - - - -
10/04:30pm 22.5 SSE 11 17 1012.4 - 8.2 - Partly cloudy 10 - - - -
10/04:25pm 22.6 SE 11 17 1012.4 - 8.2 - Partly cloudy 10 - - - -
10/04:22pm 22.6 SE 11 17 1012.4 - 8.2 - Partly cloudy 10 - - - -
10/04:04pm 21.9 SSE 11 17 1012.5 - 7.8 - Partly cloudy 3 - - - -
10/04:00pm 21.8 SSE 12 17 1012.5 - 6.8 - Partly cloudy 3 - - - -
10/03:37pm 23.2 SSE 16 22 1012.3 - 0.8 - Partly cloudy 6 - - - -
10/03:30pm 24.9 SSE 15 21 1012.2 - 0.8 - Partly cloudy 10 - - - -
10/03:00pm 26.2 SE 18 24 1012.0 - 0.8 - Cloudy 10 - - - -
10/02:30pm 28.1 SSE 17 23 1012.0 - 0.8 - Partly cloudy 10 - - - -
10/02:00pm 28.0 SSE 15 21 1012.3 - 0.8 - Partly cloudy 10 - - - -
10/01:30pm 27.0 SE 15 21 1012.6 - 0.8 - Cloudy 10 - - - -
10/01:00pm 27.1 SE 17 23 1012.9 - 0.8 - Cloudy 10 - - - -
10/12:30pm 27.7 SSE 14 19 1012.8 - 0.8 - Partly cloudy 10 - - - -
10/12:00pm 27.6 SSE 14 20 1013.0 - 0.8 - Partly cloudy 10 - - - -
10/11:30am 27.8 SSE 14 20 1013.0 - 0.8 - Partly cloudy 10 - - - -
10/11:00am 27.1 SSE 13 17 1013.4 - 0.8 - Partly cloudy 10 - - - -
10/10:30am 25.9 SSE 11 16 1013.6 - 0.8 - Partly cloudy 10 - - - -
10/10:00am 25.9 S 12 19 1013.8 - 0.8 - Partly cloudy 10 - - - -
10/09:30am 23.8 S 6 8 1014.2 - 0.8 - Partly cloudy 10 - - - -
10/09:00am 24.9 SSW 8 11 1014.3 - 0.0 Drizzle Cloudy 10 - - - -
10/08:30am 24.1 SSW 9 13 1014.2 - 0.0 - Partly cloudy 10 - - - -
10/08:00am 24.2 SSW 10 16 1013.9 - 0.0 - Partly cloudy 10 - - - -
10/07:30am 23.7 SSW 7 11 1013.7 - 0.0 - Partly cloudy 10 - - - -
10/07:00am 22.6 SSW 8 12 1013.4 - 0.0 - Partly cloudy 10 - - - -
10/06:30am 22.3 SSW 7 10 1013.3 - 0.0 - Partly cloudy 10 - - - -
10/06:00am 22.2 SSW 9 14 1012.9 - 0.0 - Cloudy 10 - - - -
10/05:30am 21.9 SSW 9 13 1012.7 - 0.0 - Cloudy 10 - - - -
10/05:00am 21.8 SSW 9 14 1012.5 - 0.0 - Partly cloudy 10 - - - -
10/04:30am 21.5 SSW 8 11 1012.4 - 0.0 - Partly cloudy 10 - - - -
10/04:00am 21.9 SSW 8 11 1012.4 - 0.0 - Partly cloudy 10 - - - -
10/03:30am 21.5 SSW 7 11 1012.4 - 0.0 - Partly cloudy 10 - - - -
10/03:00am 21.6 SSW 8 10 1012.4 - 0.0 Drizzle Partly cloudy 10 - - - -
10/02:30am 21.3 SSW 9 14 1012.7 - 0.0 - Partly cloudy 10 - - - -
10/02:00am 21.4 S 10 16 1012.8 - 0.0 - Partly cloudy 10 - - - -
10/01:30am 22.4 S 9 14 1013.1 - 0.0 - Partly cloudy 10 - - - -
10/01:00am 22.4 S 10 13 1013.3 - 0.0 - Partly cloudy 10 - - - -
10/12:30am 22.4 S 9 13 1013.8 - 0.0 - Partly cloudy 10 - - - -
10/12:00am 22.8 S 11 16 1014.2 - 0.0 - Cloudy 10 - - - -
 
Date/Time
EST
Temp

°C
Wind Pressure Rain
since 9am
mm
Weather Cloud Vis
km
Sea
Height
m
Swell
Dir
 
Speed
knots
Gust
knots
hPa Trend Height
m
Period
s
Dir
09/11:30pm 22.9 S 10 14 1014.5 - 0.0 - Partly cloudy 10 - - - -
09/11:00pm 22.8 S 9 14 1014.9 - 0.0 - Partly cloudy 10 - - - -
09/10:30pm 22.5 S 10 14 1015.4 - 0.0 - Partly cloudy 10 - - - -
09/10:00pm 22.3 S 9 13 1015.7 - 0.0 - - 10 - - - -
09/09:30pm 22.7 S 11 16 1015.9 - 0.0 - Partly cloudy 10 - - - -
09/09:00pm 22.7 S 10 14 1016.0 - 0.0 - Mostly clear 10 - - - -
09/08:30pm 22.7 S 10 13 1015.7 - 0.0 - - 10 - - - -
09/08:00pm 23.1 S 12 17 1015.6 - 0.0 - - 10 - - - -
09/07:30pm 23.3 S 11 17 1015.2 - 0.0 - - 10 - - - -
09/07:00pm 23.6 S 12 16 1015.1 - 0.0 - - 10 - - - -
09/06:30pm 24.1 S 15 22 1015.0 - 0.0 - Partly cloudy 10 - - - -
09/06:00pm 24.8 SSE 12 18 1014.8 - 0.0 - - 10 - - - -
09/05:33pm 25.5 SSE 16 26 1014.6 - 0.0 - Partly cloudy 10 - - - -
09/05:30pm 25.6 SSE 16 25 1014.6 - 0.0 - Partly cloudy 10 - - - -
09/05:03pm 26.0 SSE 18 28 1014.4 - 0.0 - - 10 - - - -
09/05:00pm 26.0 SSE 19 28 1014.4 - 0.0 - - 10 - - - -
09/04:30pm 26.9 S 17 27 1014.2 - 0.0 - - 10 - - - -
09/04:23pm 26.5 SSE 17 27 1014.2 - 0.0 - - 10 - - - -
09/04:00pm 26.4 SSE 20 29 1014.2 - 0.0 - - 10 - - - -
09/03:30pm 26.8 SSE 21 29 1014.2 - 0.0 - - 10 - - - -
09/03:02pm 26.9 SSE 21 32 1014.2 - 0.0 - - 10 - - - -
09/03:00pm 27.4 SSE 20 29 1014.3 - 0.0 - Mostly clear 10 - - - -
09/02:42pm 27.0 SSE 20 30 1014.4 - 0.0 - - 10 - - - -
09/02:30pm 27.4 SSE 20 29 1014.5 - 0.0 - Partly cloudy 10 - - - -
09/02:15pm 26.7 SSE 19 29 1014.5 - 0.0 - Partly cloudy 10 - - - -
09/02:00pm 27.7 SSE 19 28 1014.6 - 0.0 - - 10 - - - -
09/01:36pm 27.4 SSE 19 31 1014.7 - 0.0 - Partly cloudy 10 - - - -
09/01:30pm 27.6 SSE 20 27 1014.8 - 0.0 - Partly cloudy 10 - - - -
09/01:10pm 27.6 SSE 18 28 1014.8 - 0.0 - Partly cloudy 10 - - - -
09/01:00pm 27.3 SSE 20 29 1014.9 - 0.0 - Partly cloudy 10 - - - -
09/12:32pm 27.8 SSE 17 28 1015.2 - 0.0 - Partly cloudy 10 - - - -
09/12:30pm 27.7 SSE 18 26 1015.2 - 0.0 - Partly cloudy 10 - - - -
09/12:19pm 27.2 SSE 20 30 1015.3 - 0.0 - Partly cloudy 10 - - - -
09/12:00pm 27.2 SE 19 27 1015.4 - 0.0 - Mostly clear 10 - - - -
09/11:37am 27.1 SSE 19 29 1015.6 - 0.0 - Partly cloudy 10 - - - -
09/11:30am 27.5 SSE 19 28 1015.6 - 0.0 - Partly cloudy 10 - - - -
09/11:00am 27.7 SSE 17 26 1015.8 - 0.0 - - 10 - - - -
09/10:47am 27.3 SSE 17 27 1015.8 - 0.0 - Partly cloudy 10 - - - -
09/10:30am 27.7 SSE 20 29 1015.8 - 0.0 - Partly cloudy 10 - - - -
09/10:00am 26.6 SSE 18 29 1015.8 - 0.0 - - 10 - - - -
09/09:34am 26.7 SSE 19 27 1015.9 - 0.0 - Partly cloudy 10 - - - -
09/09:30am 26.1 S 17 28 1015.9 - 0.0 - Partly cloudy 10 - - - -
09/09:21am 25.3 S 16 28 1016.0 - 0.0 - Partly cloudy 10 - - - -
09/09:00am 26.1 S 15 22 1015.9 - 0.0 Drizzle Mostly cloudy 10 - - - -
09/08:30am 25.2 S 12 18 1015.8 - 0.0 - Partly cloudy 10 - - - -
09/08:00am 24.2 SSE 11 16 1015.8 - 0.0 - Partly cloudy 10 - - - -
09/07:30am 24.4 S 11 17 1015.7 - 0.0 - - 10 - - - -
09/07:00am 23.7 SSW 8 13 1015.4 - 0.0 - Partly cloudy 10 - - - -
09/06:30am 22.6 SSW 7 11 1015.1 - 0.0 - Partly cloudy 10 - - - -
09/06:00am 22.2 SSW 7 12 1014.7 - 0.0 - Mostly clear 10 - - - -
09/05:30am 22.2 SSW 8 11 1014.3 - 0.0 - Partly cloudy 10 - - - -
09/05:00am 22.5 S 9 13 1014.0 - 0.0 - Partly cloudy 10 - - - -
09/04:30am 22.4 SSW 9 13 1013.7 - 0.0 - Partly cloudy 10 - - - -
09/04:00am 22.3 SSW 9 11 1013.6 - 0.0 - Partly cloudy 10 - - - -
09/03:30am 22.9 SSW 8 11 1013.6 - 0.0 - Partly cloudy 10 - - - -
09/03:00am 22.6 SSW 7 12 1013.6 - 0.0 - Mostly cloudy 10 - - - -
09/02:30am 23.1 SSW 9 14 1013.6 - 0.0 - Cloudy 10 - - - -
09/02:00am 23.0 SSW 9 13 1013.7 - 0.0 - Cloudy 10 - - - -
09/01:30am 22.9 SSW 9 14 1013.9 - 0.0 - Partly cloudy 10 - - - -
09/01:00am 23.1 SSW 9 14 1014.2 - 0.0 - Cloudy 10 - - - -
09/12:30am 23.1 SSW 9 13 1014.4 - 0.0 - Partly cloudy 10 - - - -
09/12:00am 22.9 SSW 10 15 1014.8 - 0.0 - Partly cloudy 10 - - - -
 
Date/Time
EST
Temp

°C
Wind Pressure Rain
since 9am
mm
Weather Cloud Vis
km
Sea
Height
m
Swell
Dir
 
Speed
knots
Gust
knots
hPa Trend Height
m
Period
s
Dir
08/11:30pm 22.9 SSW 8 13 1015.1 - 0.0 - Partly cloudy 10 - - - -

Other Formats:

Comma delimited format used in spreadsheet applications
http://www.bom.gov.au/fwo/IDQ60701/IDQ60701.94592.axf

JavaScript Object Notation format (JSON) in row-major order
http://www.bom.gov.au/fwo/IDQ60701/IDQ60701.94592.json